Time;durP1;ratioP1;P1;durP2;ratioP2;P2;SDS_P1;SDS_P2;PMS_P1;PMS_P2;Temp;Humidity;BMP_temperature;BMP_pressure;BME280_temperature;BME280_humidity;BME280_pressure;Samples;Min_cycle;Max_cycle;Signal;HPM_P1;HPM_P2
2022/11/27 00:01:22;;;;;;;2.55;0.40;;;;;;;;;;5031568;28;20046;-66
2022/11/27 00:03:48;;;;;;;3.83;0.45;;;;;;;;;;5018296;28;20073;-66
2022/11/27 00:06:16;;;;;;;2.87;0.67;;;;;;;;;;5015420;28;20417;-66
2022/11/27 00:08:43;;;;;;;;;;;;;;;;;;5014238;28;20046;-66
2022/11/27 00:11:19;;;;;;;2.75;0.40;;;;;;;;;;5013664;28;19928;-66
2022/11/27 00:13:46;;;;;;;0.80;0.40;;;;;;;;;;5028350;28;20050;-66
2022/11/27 00:16:13;;;;;;;5.90;0.63;;;;;;;;;;5013700;28;20053;-66
2022/11/27 00:18:40;;;;;;;3.10;0.57;;;;;;;;;;5014016;28;20345;-66
2022/11/27 00:21:09;;;;;;;2.80;0.40;;;;;;;;;;5014602;28;20046;-67
2022/11/27 00:23:35;;;;;;;2.25;0.50;;;;;;;;;;5011622;28;20057;-67
2022/11/27 00:26:02;;;;;;;2.38;0.90;;;;;;;;;;5012334;28;20486;-66
2022/11/27 00:28:28;;;;;;;2.50;0.85;;;;;;;;;;5012212;28;20046;-66
2022/11/27 00:30:59;;;;;;;2.78;0.60;;;;;;;;;;5014439;28;20050;-65
2022/11/27 00:33:25;;;;;;;2.83;0.47;;;;;;;;;;5033730;28;20095;-66
2022/11/27 00:35:51;;;;;;;3.63;0.80;;;;;;;;;;5034003;28;20045;-66
2022/11/27 00:38:19;;;;;;;3.42;0.70;;;;;;;;;;5019634;28;20054;-66
2022/11/27 00:40:45;;;;;;;4.90;0.90;;;;;;;;;;5031787;28;20414;-66
2022/11/27 00:43:12;;;;;;;3.90;1.00;;;;;;;;;;5033513;28;20135;-66
2022/11/27 00:45:38;;;;;;;4.28;1.05;;;;;;;;;;5033460;28;20054;-66
2022/11/27 00:48:05;;;;;;;4.28;1.10;;;;;;;;;;5033411;28;20054;-66
2022/11/27 00:50:31;;;;;;;3.40;1.10;;;;;;;;;;5033369;28;20491;-66
2022/11/27 00:52:58;;;;;;;5.18;1.50;;;;;;;;;;5033434;28;20050;-66
2022/11/27 00:55:25;;;;;;;4.33;1.83;;;;;;;;;;5033406;28;20053;-65
2022/11/27 00:57:51;;;;;;;7.38;1.55;;;;;;;;;;5033480;28;20067;-66
2022/11/27 01:00:18;;;;;;;4.43;1.65;;;;;;;;;;5033172;28;20519;-66
2022/11/27 01:02:44;;;;;;;5.20;1.60;;;;;;;;;;5031773;28;20049;-66
2022/11/27 01:05:11;;;;;;;2.20;1.42;;;;;;;;;;5033432;28;20046;-65
2022/11/27 01:07:37;;;;;;;3.63;1.60;;;;;;;;;;5033324;28;20049;-65
2022/11/27 01:10:04;;;;;;;3.15;2.20;;;;;;;;;;5033412;28;20057;-66
2022/11/27 01:12:30;;;;;;;3.67;1.95;;;;;;;;;;5032924;28;20041;-65
2022/11/27 01:14:57;;;;;;;3.78;1.67;;;;;;;;;;5032961;28;20064;-65
2022/11/27 01:17:23;;;;;;;5.22;1.67;;;;;;;;;;5033144;28;20054;-65
2022/11/27 01:19:49;;;;;;;4.10;2.13;;;;;;;;;;5033068;28;20416;-65
2022/11/27 01:22:16;;;;;;;4.93;2.55;;;;;;;;;;5031990;28;20050;-65
2022/11/27 01:24:42;;;;;;;7.40;2.38;;;;;;;;;;5019114;28;20049;-65
2022/11/27 01:27:09;;;;;;;6.53;2.95;;;;;;;;;;5032703;28;20045;-65
2022/11/27 01:29:35;;;;;;;9.38;3.47;;;;;;;;;;5033152;28;20055;-65
2022/11/27 01:32:01;;;;;;;4.03;2.55;;;;;;;;;;5032914;28;20056;-65
2022/11/27 01:34:28;;;;;;;7.68;2.60;;;;;;;;;;5032483;28;20049;-65
2022/11/27 01:36:54;;;;;;;4.85;2.58;;;;;;;;;;5031688;28;20072;-65
2022/11/27 01:39:23;;;;;;;7.70;2.78;;;;;;;;;;5032601;28;20045;-65
2022/11/27 01:41:49;;;;;;;8.07;2.63;;;;;;;;;;5032457;28;20053;-65
2022/11/27 01:44:25;;;;;;;9.15;3.13;;;;;;;;;;5032435;28;20049;-64
2022/11/27 01:46:53;;;;;;;6.10;2.97;;;;;;;;;;5032410;28;20041;-64
2022/11/27 01:49:22;;;;;;;7.32;3.22;;;;;;;;;;5031331;28;20077;-65
2022/11/27 01:51:48;;;;;;;7.60;3.42;;;;;;;;;;5031701;28;20042;-65
2022/11/27 01:54:15;;;;;;;7.05;2.92;;;;;;;;;;5032501;28;20041;-65
2022/11/27 01:56:44;;;;;;;8.07;3.23;;;;;;;;;;5032529;28;20053;-65
2022/11/27 01:59:10;;;;;;;9.65;2.90;;;;;;;;;;5032055;28;20049;-65
2022/11/27 02:01:37;;;;;;;8.00;2.67;;;;;;;;;;5032017;28;20050;-64
2022/11/27 02:04:03;;;;;;;8.57;2.42;;;;;;;;;;5032219;28;20397;-64
2022/11/27 02:06:29;;;;;;;10.07;2.67;;;;;;;;;;5022384;28;20064;-64
2022/11/27 02:08:56;;;;;;;9.90;2.90;;;;;;;;;;5028175;28;20054;-65
2022/11/27 02:11:22;;;;;;;6.47;2.70;;;;;;;;;;5032251;28;20049;-64
2022/11/27 02:14:07;;;;;;;12.75;2.55;;;;;;;;;;5032031;28;20057;-64
2022/11/27 02:16:52;;;;;;;11.40;2.97;;;;;;;;;;5031880;28;20060;-65
2022/11/27 02:19:34;;;;;;;10.70;2.38;;;;;;;;;;5030628;28;20421;-65
2022/11/27 02:22:21;;;;;;;8.85;2.63;;;;;;;;;;5023504;28;20057;-65
2022/11/27 02:25:06;;;;;;;9.25;2.78;;;;;;;;;;5031975;28;20047;-64
2022/11/27 02:27:55;;;;;;;14.07;3.30;;;;;;;;;;5031818;28;20083;-64
2022/11/27 02:30:21;;;;;;;9.00;2.90;;;;;;;;;;5031725;28;20056;-64
2022/11/27 02:32:50;;;;;;;9.90;3.17;;;;;;;;;;5031886;28;20045;-64
2022/11/27 02:35:19;;;;;;;13.98;3.00;;;;;;;;;;5031936;28;20048;-65
2022/11/27 02:37:49;;;;;;;9.70;3.22;;;;;;;;;;5031540;28;20060;-65
2022/11/27 02:40:19;;;;;;;13.05;2.80;;;;;;;;;;5031454;28;20053;-64
2022/11/27 02:42:56;;;;;;;13.85;3.00;;;;;;;;;;5032095;28;20055;-65
2022/11/27 02:45:24;;;;;;;8.32;2.85;;;;;;;;;;5031909;28;20168;-64
2022/11/27 02:47:51;;;;;;;11.25;2.95;;;;;;;;;;5031452;28;20497;-65
2022/11/27 02:50:19;;;;;;;10.18;2.60;;;;;;;;;;5031461;28;20485;-65
2022/11/27 02:52:46;;;;;;;13.52;2.78;;;;;;;;;;5031514;28;20485;-65
2022/11/27 02:55:15;;;;;;;12.80;3.38;;;;;;;;;;5031621;28;20054;-64
2022/11/27 02:57:43;;;;;;;12.85;2.78;;;;;;;;;;5031464;28;20378;-65
2022/11/27 03:00:10;;;;;;;15.00;2.65;;;;;;;;;;5031648;28;20049;-65
2022/11/27 03:02:40;;;;;;;14.15;2.85;;;;;;;;;;5031289;28;20132;-65
2022/11/27 03:05:09;;;;;;;12.30;2.47;;;;;;;;;;5035772;28;20053;-65
2022/11/27 03:07:41;;;;;;;15.50;2.67;;;;;;;;;;5035686;28;20052;-65
2022/11/27 03:10:23;;;;;;;13.88;3.60;;;;;;;;;;5035284;28;20053;-65
2022/11/27 03:12:49;;;;;;;12.10;3.03;;;;;;;;;;5021654;28;20497;-65
2022/11/27 03:15:16;;;;;;;15.02;2.85;;;;;;;;;;5035188;28;20056;-65
2022/11/27 03:17:50;;;;;;;14.65;3.08;;;;;;;;;;5035179;28;20045;-65
2022/11/27 03:20:17;;;;;;;11.00;2.78;;;;;;;;;;5035234;28;20064;-65
2022/11/27 03:22:43;;;;;;;18.67;3.33;;;;;;;;;;5034966;28;20049;-65
2022/11/27 03:25:10;;;;;;;12.48;2.80;;;;;;;;;;5034993;28;20049;-65
2022/11/27 03:27:41;;;;;;;15.32;2.88;;;;;;;;;;5035248;28;20050;-65
2022/11/27 03:30:08;;;;;;;14.23;3.05;;;;;;;;;;5034947;28;20049;-65
2022/11/27 03:32:34;;;;;;;18.33;3.28;;;;;;;;;;5034931;28;20416;-65
2022/11/27 03:35:01;;;;;;;18.55;3.80;;;;;;;;;;5034920;28;20432;-65
2022/11/27 03:37:27;;;;;;;14.10;2.70;;;;;;;;;;5022199;28;20053;-65
2022/11/27 03:39:54;;;;;;;16.60;2.78;;;;;;;;;;5033828;28;20049;-65
2022/11/27 03:42:32;;;;;;;11.52;2.72;;;;;;;;;;5034579;28;20058;-65
2022/11/27 03:45:02;;;;;;;17.15;2.97;;;;;;;;;;5035215;28;20045;-65
2022/11/27 03:47:40;;;;;;;13.88;2.65;;;;;;;;;;5034621;28;20516;-65
2022/11/27 03:50:30;;;;;;;17.40;3.10;;;;;;;;;;5034816;28;20041;-65
2022/11/27 03:53:09;;;;;;;16.27;3.10;;;;;;;;;;5033952;28;20067;-65
2022/11/27 03:55:41;;;;;;;14.18;3.08;;;;;;;;;;5034476;28;20409;-64
2022/11/27 03:58:09;;;;;;;16.58;3.90;;;;;;;;;;5033065;28;20492;-65
2022/11/27 04:00:41;;;;;;;17.20;3.25;;;;;;;;;;5034356;28;20064;-65
2022/11/27 04:03:08;;;;;;;20.83;2.95;;;;;;;;;;5034075;28;20045;-65
2022/11/27 04:05:35;;;;;;;17.10;3.42;;;;;;;;;;5034278;28;20053;-64
2022/11/27 04:08:01;;;;;;;21.90;3.08;;;;;;;;;;5034547;28;20041;-65
2022/11/27 04:10:27;;;;;;;19.95;2.90;;;;;;;;;;5034122;28;20077;-65
2022/11/27 04:12:54;;;;;;;19.50;3.08;;;;;;;;;;5033972;28;20046;-64
2022/11/27 04:15:20;;;;;;;12.77;2.63;;;;;;;;;;5034230;28;20053;-64
2022/11/27 04:17:46;;;;;;;15.15;2.85;;;;;;;;;;5034312;28;20049;-64
2022/11/27 04:20:13;;;;;;;17.95;2.45;;;;;;;;;;5034293;28;20489;-64
2022/11/27 04:22:39;;;;;;;18.73;3.20;;;;;;;;;;5033853;28;20054;-65
2022/11/27 04:25:06;;;;;;;12.02;2.80;;;;;;;;;;5033947;28;20057;-64
2022/11/27 04:27:33;;;;;;;12.38;2.83;;;;;;;;;;5034140;28;20052;-65
2022/11/27 04:29:59;;;;;;;17.05;2.85;;;;;;;;;;5034049;28;20436;-64
2022/11/27 04:32:25;;;;;;;10.82;2.33;;;;;;;;;;5033740;28;20061;-65
2022/11/27 04:34:52;;;;;;;10.98;2.28;;;;;;;;;;5033861;28;20052;-64
2022/11/27 04:37:18;;;;;;;11.70;2.70;;;;;;;;;;5034045;28;20049;-65
2022/11/27 04:39:44;;;;;;;14.48;2.90;;;;;;;;;;5033867;28;20057;-64
2022/11/27 04:42:11;;;;;;;20.25;3.35;;;;;;;;;;5033458;28;20053;-64
2022/11/27 04:44:37;;;;;;;16.65;2.60;;;;;;;;;;5033748;28;20060;-64
2022/11/27 04:47:04;;;;;;;17.35;2.75;;;;;;;;;;5033670;28;20047;-64
2022/11/27 04:49:31;;;;;;;17.88;2.95;;;;;;;;;;5033614;28;20049;-64
2022/11/27 04:51:57;;;;;;;13.80;2.97;;;;;;;;;;5033333;28;20045;-64
2022/11/27 04:54:23;;;;;;;15.43;2.72;;;;;;;;;;5033617;28;20064;-64
2022/11/27 04:56:50;;;;;;;22.65;3.13;;;;;;;;;;5033624;28;20064;-64
2022/11/27 04:59:16;;;;;;;13.68;2.60;;;;;;;;;;5033588;28;20049;-64
2022/11/27 05:01:42;;;;;;;16.45;3.03;;;;;;;;;;5033595;28;20049;-64
2022/11/27 05:04:09;;;;;;;22.00;3.72;;;;;;;;;;5033219;28;20041;-64
2022/11/27 05:06:35;;;;;;;19.25;3.50;;;;;;;;;;5033126;28;20054;-64
2022/11/27 05:09:01;;;;;;;21.30;3.45;;;;;;;;;;5032960;28;20045;-64
2022/11/27 05:11:29;;;;;;;23.50;3.65;;;;;;;;;;5033338;28;20049;-64
2022/11/27 05:14:14;;;;;;;21.20;3.40;;;;;;;;;;5033182;28;20057;-64
2022/11/27 05:16:40;;;;;;;21.67;3.83;;;;;;;;;;5033162;28;20053;-64
2022/11/27 05:19:10;;;;;;;20.27;3.45;;;;;;;;;;5033205;28;20051;-64
2022/11/27 05:21:37;;;;;;;25.45;3.17;;;;;;;;;;5033195;28;20076;-64
2022/11/27 05:24:03;;;;;;;20.13;4.23;;;;;;;;;;5033001;28;20069;-64
2022/11/27 05:26:30;;;;;;;23.98;3.85;;;;;;;;;;5032123;28;20060;-64
2022/11/27 05:28:56;;;;;;;18.38;3.97;;;;;;;;;;5032751;28;20105;-64
2022/11/27 05:31:23;;;;;;;25.42;4.22;;;;;;;;;;5032600;28;20049;-64
2022/11/27 05:33:49;;;;;;;27.17;3.65;;;;;;;;;;5032640;28;20049;-64
2022/11/27 05:36:15;;;;;;;22.38;3.58;;;;;;;;;;5032821;28;20057;-64
2022/11/27 05:38:42;;;;;;;26.27;4.18;;;;;;;;;;5032820;28;20060;-64
2022/11/27 05:41:08;;;;;;;27.60;3.88;;;;;;;;;;5032391;28;20057;-64
2022/11/27 05:43:34;;;;;;;16.92;3.47;;;;;;;;;;5032551;28;20049;-64
2022/11/27 05:46:05;;;;;;;30.13;4.30;;;;;;;;;;5032934;28;20052;-64
2022/11/27 05:48:32;;;;;;;17.27;4.03;;;;;;;;;;5032658;28;20049;-64
2022/11/27 05:50:59;;;;;;;23.30;3.88;;;;;;;;;;5032646;28;20060;-64
2022/11/27 05:53:25;;;;;;;30.23;4.47;;;;;;;;;;5032516;28;20049;-64
2022/11/27 05:55:52;;;;;;;25.88;4.65;;;;;;;;;;5032403;28;20052;-64
2022/11/27 05:58:18;;;;;;;22.27;4.68;;;;;;;;;;5032154;28;20533;-64
2022/11/27 06:00:45;;;;;;;27.55;3.55;;;;;;;;;;5032409;28;20056;-64
2022/11/27 06:03:11;;;;;;;22.48;4.20;;;;;;;;;;5031843;28;20056;-64
2022/11/27 06:05:38;;;;;;;23.92;3.60;;;;;;;;;;5032285;28;20129;-64
2022/11/27 06:08:05;;;;;;;29.90;4.35;;;;;;;;;;5032208;28;20111;-64
2022/11/27 06:10:31;;;;;;;23.15;3.30;;;;;;;;;;5032267;28;20063;-64
2022/11/27 06:12:58;;;;;;;24.08;4.30;;;;;;;;;;5032276;28;20397;-64
2022/11/27 06:15:24;;;;;;;22.38;4.18;;;;;;;;;;5031936;28;20073;-64
2022/11/27 06:17:50;;;;;;;21.73;3.88;;;;;;;;;;5031840;28;20496;-64
2022/11/27 06:20:19;;;;;;;25.50;3.97;;;;;;;;;;5032055;28;20079;-64
2022/11/27 06:22:45;;;;;;;29.23;4.10;;;;;;;;;;5031783;28;20050;-64
2022/11/27 06:25:11;;;;;;;21.90;3.53;;;;;;;;;;5031913;28;20045;-64
2022/11/27 06:27:38;;;;;;;25.73;4.03;;;;;;;;;;5031989;28;20045;-64
2022/11/27 06:30:04;;;;;;;28.05;4.40;;;;;;;;;;5032051;28;20052;-64
2022/11/27 06:32:31;;;;;;;24.70;4.32;;;;;;;;;;5031679;28;20505;-64
2022/11/27 06:34:58;;;;;;;29.40;4.43;;;;;;;;;;5031664;28;20051;-64
2022/11/27 06:37:24;;;;;;;27.08;4.63;;;;;;;;;;5031752;28;20049;-64
2022/11/27 06:39:50;;;;;;;21.00;4.03;;;;;;;;;;5031563;28;20046;-64
2022/11/27 06:42:17;;;;;;;28.63;4.38;;;;;;;;;;5031375;28;20424;-64
2022/11/27 06:44:43;;;;;;;32.05;5.55;;;;;;;;;;5031384;28;20045;-64
2022/11/27 06:47:09;;;;;;;25.05;3.75;;;;;;;;;;5031777;28;20048;-64
2022/11/27 06:49:36;;;;;;;30.58;4.68;;;;;;;;;;5031670;28;20046;-64
2022/11/27 06:52:02;;;;;;;24.83;4.55;;;;;;;;;;5031668;28;20041;-64
2022/11/27 06:54:29;;;;;;;26.42;4.50;;;;;;;;;;5031647;28;20056;-64
2022/11/27 06:56:55;;;;;;;26.58;4.50;;;;;;;;;;5031448;28;20056;-64
2022/11/27 06:59:21;;;;;;;29.33;5.13;;;;;;;;;;5031394;28;20053;-64
2022/11/27 07:01:47;;;;;;;20.40;4.00;;;;;;;;;;5031657;28;20049;-64
2022/11/27 07:04:14;;;;;;;25.02;3.92;;;;;;;;;;5031526;28;20052;-64
2022/11/27 07:06:41;;;;;;;31.35;4.45;;;;;;;;;;5031680;28;20052;-64
2022/11/27 07:09:08;;;;;;;20.33;4.07;;;;;;;;;;5031356;28;20046;-64
2022/11/27 07:11:35;;;;;;;30.35;5.50;;;;;;;;;;5031392;28;20069;-64
2022/11/27 07:14:03;;;;;;;34.85;6.90;;;;;;;;;;5031147;28;20516;-64
2022/11/27 07:16:29;;;;;;;;;;;;;;;;;;5032012;28;20062;-64
2022/11/27 07:19:00;;;;;;;30.13;5.53;;;;;;;;;;5031462;28;19924;-64
2022/11/27 07:21:27;;;;;;;41.97;5.60;;;;;;;;;;5031598;28;20064;-64
2022/11/27 07:23:55;;;;;;;19.60;5.20;;;;;;;;;;5031208;28;20830;-64
2022/11/27 07:26:23;;;;;;;23.25;7.40;;;;;;;;;;5031084;28;20059;-64
2022/11/27 07:28:49;;;;;;;19.83;6.93;;;;;;;;;;5031492;28;20049;-64
2022/11/27 07:31:27;;;;;;;30.98;12.88;;;;;;;;;;5031297;28;20041;-64
2022/11/27 07:33:54;;;;;;;31.77;15.25;;;;;;;;;;5031224;28;20477;-64
2022/11/27 07:36:22;;;;;;;31.90;14.80;;;;;;;;;;5031011;28;20049;-64
2022/11/27 07:38:48;;;;;;;30.30;14.48;;;;;;;;;;5031305;28;20432;-64
2022/11/27 07:41:15;;;;;;;32.25;13.88;;;;;;;;;;5030830;28;20065;-64
2022/11/27 07:43:42;;;;;;;27.02;7.95;;;;;;;;;;5025206;28;20049;-64
2022/11/27 07:46:13;;;;;;;22.70;8.32;;;;;;;;;;5017462;28;20048;-64
2022/11/27 07:48:39;;;;;;;25.25;9.23;;;;;;;;;;5032213;28;20133;-64
2022/11/27 07:51:10;;;;;;;31.33;12.65;;;;;;;;;;5025135;28;20049;-64
2022/11/27 07:53:37;;;;;;;28.85;10.85;;;;;;;;;;5028225;28;20064;-65
2022/11/27 07:56:07;;;;;;;24.45;11.40;;;;;;;;;;5016422;28;20042;-65
2022/11/27 07:58:34;;;;;;;54.20;24.52;;;;;;;;;;5014301;28;20129;-65
2022/11/27 08:01:04;;;;;;;59.92;26.42;;;;;;;;;;5013542;28;20489;-65
2022/11/27 08:03:30;;;;;;;52.78;25.45;;;;;;;;;;5013722;28;20054;-65
2022/11/27 08:05:57;;;;;;;56.53;20.65;;;;;;;;;;5019320;28;20061;-65
2022/11/27 08:08:23;;;;;;;52.60;19.35;;;;;;;;;;5033356;28;20045;-66
2022/11/27 08:10:49;;;;;;;40.80;20.25;;;;;;;;;;5031791;28;20128;-64
2022/11/27 08:13:16;;;;;;;35.42;11.30;;;;;;;;;;5033680;28;20504;-65
2022/11/27 08:15:42;;;;;;;33.40;10.95;;;;;;;;;;5033485;28;20053;-64
2022/11/27 08:18:09;;;;;;;21.73;6.40;;;;;;;;;;5033840;28;20049;-64
2022/11/27 08:20:35;;;;;;;25.52;8.00;;;;;;;;;;5033505;28;20055;-64
2022/11/27 08:23:02;;;;;;;23.88;8.52;;;;;;;;;;5019668;28;20390;-64
2022/11/27 08:25:28;;;;;;;46.92;12.13;;;;;;;;;;5033661;28;20137;-64
2022/11/27 08:27:54;;;;;;;39.85;14.85;;;;;;;;;;5033621;28;20052;-64
2022/11/27 08:30:22;;;;;;;35.33;13.15;;;;;;;;;;5033672;28;20057;-64
2022/11/27 08:32:49;;;;;;;37.28;12.30;;;;;;;;;;5032001;28;20056;-66
2022/11/27 08:35:15;;;;;;;29.15;11.18;;;;;;;;;;5033170;28;20501;-65
2022/11/27 08:37:42;;;;;;;33.97;10.80;;;;;;;;;;5021264;28;20046;-65
2022/11/27 08:40:08;;;;;;;38.17;11.05;;;;;;;;;;5012424;28;20041;-66
2022/11/27 08:42:35;;;;;;;38.05;10.20;;;;;;;;;;5018095;28;20060;-65
2022/11/27 08:45:01;;;;;;;29.05;7.90;;;;;;;;;;5032271;28;20493;-65
2022/11/27 08:47:27;;;;;;;24.70;7.35;;;;;;;;;;5028683;28;20490;-65
2022/11/27 08:49:54;;;;;;;20.40;6.13;;;;;;;;;;5012670;28;20046;-65
2022/11/27 08:52:20;;;;;;;19.25;6.70;;;;;;;;;;5031380;28;20046;-64
2022/11/27 08:54:47;;;;;;;19.75;6.00;;;;;;;;;;5020097;28;20053;-66
2022/11/27 08:57:19;;;;;;;28.38;5.85;;;;;;;;;;5031723;28;20394;-64
2022/11/27 08:59:46;;;;;;;34.00;7.20;;;;;;;;;;5019175;28;20050;-65
2022/11/27 09:02:12;;;;;;;41.70;8.13;;;;;;;;;;5011041;28;20050;-65
2022/11/27 09:04:38;;;;;;;32.78;7.47;;;;;;;;;;5012283;28;20042;-65
2022/11/27 09:07:05;;;;;;;35.47;6.90;;;;;;;;;;5027144;28;20056;-69
2022/11/27 09:09:32;;;;;;;36.65;5.75;;;;;;;;;;5032166;28;20137;-66
2022/11/27 09:11:58;;;;;;;36.53;6.20;;;;;;;;;;5030943;28;20037;-66
2022/11/27 09:14:25;;;;;;;36.55;5.75;;;;;;;;;;5032243;28;20056;-64
2022/11/27 09:16:52;;;;;;;32.38;5.35;;;;;;;;;;5019043;28;20507;-64
2022/11/27 09:19:19;;;;;;;41.22;6.00;;;;;;;;;;5021592;28;20124;-64
2022/11/27 09:21:47;;;;;;;33.70;5.72;;;;;;;;;;5029266;28;20494;-64
2022/11/27 09:24:14;;;;;;;30.67;6.60;;;;;;;;;;5032487;28;20132;-63
2022/11/27 09:26:40;;;;;;;36.38;6.22;;;;;;;;;;5032429;28;20045;-64
2022/11/27 09:29:07;;;;;;;38.95;6.47;;;;;;;;;;5032202;28;20046;-64
2022/11/27 09:31:33;;;;;;;34.63;6.68;;;;;;;;;;5032151;28;20116;-65
2022/11/27 09:33:59;;;;;;;37.22;6.35;;;;;;;;;;5032352;28;20053;-65
2022/11/27 09:36:26;;;;;;;41.35;6.82;;;;;;;;;;5018692;28;20053;-65
2022/11/27 09:38:53;;;;;;;38.33;6.25;;;;;;;;;;5032015;28;20397;-64
2022/11/27 09:41:39;;;;;;;34.00;5.47;;;;;;;;;;5031963;28;20477;-64
2022/11/27 09:44:15;;;;;;;40.00;6.07;;;;;;;;;;5027420;28;20054;-64
2022/11/27 09:46:42;;;;;;;45.67;7.00;;;;;;;;;;5025134;28;20272;-64
2022/11/27 09:49:15;;;;;;;31.92;5.47;;;;;;;;;;5022724;28;20421;-67
2022/11/27 09:51:48;;;;;;;40.25;5.63;;;;;;;;;;5027526;28;20053;-66
2022/11/27 09:54:17;;;;;;;37.72;6.07;;;;;;;;;;5031198;28;20120;-65
2022/11/27 09:56:46;;;;;;;47.10;6.95;;;;;;;;;;5031576;28;20037;-65
2022/11/27 09:59:20;;;;;;;35.40;6.97;;;;;;;;;;5032018;28;20045;-63
2022/11/27 16:20:27;;;;;;;41.17;9.40;;;;;;;;;;5068845;28;20681;-64
2022/11/27 16:22:54;;;;;;;25.95;8.38;;;;;;;;;;5068583;28;20497;-67
2022/11/27 16:25:20;;;;;;;38.42;9.10;;;;;;;;;;5068411;28;20055;-71
2022/11/27 16:27:46;;;;;;;40.63;12.07;;;;;;;;;;5068915;28;20052;-73
2022/11/27 16:30:13;;;;;;;82.72;49.92;;;;;;;;;;5068782;28;20110;-68
2022/11/27 16:32:39;;;;;;;61.70;34.17;;;;;;;;;;5068753;28;20080;-70
2022/11/27 16:35:06;;;;;;;49.55;20.35;;;;;;;;;;5068431;28;20054;-70
2022/11/27 16:37:32;;;;;;;45.65;20.00;;;;;;;;;;5066677;28;20045;-73
2022/11/27 16:39:59;;;;;;;56.55;28.25;;;;;;;;;;5067149;28;20047;-70
2022/11/27 16:42:25;;;;;;;57.75;29.88;;;;;;;;;;5068705;28;20067;-68
2022/11/27 16:44:51;;;;;;;48.22;23.73;;;;;;;;;;5065549;28;20412;-68
2022/11/27 16:47:18;;;;;;;41.63;14.70;;;;;;;;;;5067847;28;20567;-69
2022/11/27 16:49:47;;;;;;;28.30;9.73;;;;;;;;;;5067867;28;20488;-69
2022/11/27 16:52:14;;;;;;;44.03;18.75;;;;;;;;;;5066887;28;20120;-69
2022/11/27 16:54:40;;;;;;;40.58;15.93;;;;;;;;;;5068233;28;20057;-69
2022/11/27 16:57:07;;;;;;;47.20;16.05;;;;;;;;;;5068008;28;20118;-71
2022/11/27 16:59:36;;;;;;;41.78;14.82;;;;;;;;;;5068033;28;20041;-67
2022/11/27 17:02:03;;;;;;;43.58;16.58;;;;;;;;;;5068456;28;20071;-68
2022/11/27 17:04:30;;;;;;;42.05;13.57;;;;;;;;;;5068019;28;20492;-67
2022/11/27 17:06:56;;;;;;;41.50;15.93;;;;;;;;;;5057322;28;20045;-72
2022/11/27 17:09:24;;;;;;;40.70;16.60;;;;;;;;;;5059700;28;20504;-69
2022/11/27 17:11:51;;;;;;;40.45;14.73;;;;;;;;;;5065876;28;20048;-70
2022/11/27 17:14:19;;;;;;;37.92;13.90;;;;;;;;;;5065680;28;20059;-71
2022/11/27 17:16:46;;;;;;;50.53;15.48;;;;;;;;;;5067010;28;20552;-70
2022/11/27 17:19:13;;;;;;;39.60;14.82;;;;;;;;;;5067042;28;20475;-70
2022/11/27 17:21:40;;;;;;;33.22;15.70;;;;;;;;;;5067567;28;20396;-70
2022/11/27 17:24:09;;;;;;;133.73;70.93;;;;;;;;;;5066043;28;20445;-70
2022/11/27 17:26:44;;;;;;;105.97;54.70;;;;;;;;;;5063843;28;20099;-68
2022/11/27 17:29:11;;;;;;;91.93;45.33;;;;;;;;;;5067145;28;20433;-68
2022/11/27 17:31:38;;;;;;;73.22;36.45;;;;;;;;;;5055929;28;20057;-68
2022/11/27 17:34:04;;;;;;;56.22;28.92;;;;;;;;;;5054256;28;20052;-68
2022/11/27 17:36:32;;;;;;;44.47;22.92;;;;;;;;;;5054229;28;20496;-68
2022/11/27 17:39:03;;;;;;;46.40;22.30;;;;;;;;;;5054314;28;20041;-68
2022/11/27 17:41:29;;;;;;;38.55;17.70;;;;;;;;;;5050225;28;20133;-69
2022/11/27 17:43:56;;;;;;;48.13;20.25;;;;;;;;;;5039123;28;20401;-68
2022/11/27 17:46:26;;;;;;;42.33;18.40;;;;;;;;;;5033873;28;20046;-68
2022/11/27 17:48:53;;;;;;;54.08;21.60;;;;;;;;;;5033566;28;20054;-68
2022/11/27 17:51:20;;;;;;;44.23;20.53;;;;;;;;;;5033766;28;20049;-69
2022/11/27 17:53:47;;;;;;;47.35;22.60;;;;;;;;;;5033841;28;20507;-66
2022/11/27 17:56:14;;;;;;;46.13;22.00;;;;;;;;;;5039108;28;20057;-65
2022/11/27 17:58:41;;;;;;;46.25;23.73;;;;;;;;;;5051935;28;20503;-66
2022/11/27 18:01:13;;;;;;;51.50;22.75;;;;;;;;;;5051941;28;20488;-66
2022/11/27 18:03:41;;;;;;;46.40;21.48;;;;;;;;;;5053630;28;20106;-66
2022/11/27 18:06:08;;;;;;;52.53;23.20;;;;;;;;;;5053478;28;20493;-67
2022/11/27 18:08:34;;;;;;;55.70;24.35;;;;;;;;;;5053775;28;20045;-66
2022/11/27 18:11:08;;;;;;;55.17;27.17;;;;;;;;;;5053768;28;20045;-65
2022/11/27 18:13:35;;;;;;;74.82;42.85;;;;;;;;;;5053714;28;20044;-66
2022/11/27 18:16:09;;;;;;;87.50;53.38;;;;;;;;;;5034615;28;20037;-67
2022/11/27 18:18:35;;;;;;;94.57;58.80;;;;;;;;;;5053017;28;20049;-66
2022/11/27 18:21:05;;;;;;;116.13;81.00;;;;;;;;;;5053337;28;20056;-67
2022/11/27 18:23:34;;;;;;;97.72;62.80;;;;;;;;;;5053130;28;20416;-64
2022/11/27 18:26:04;;;;;;;79.30;47.42;;;;;;;;;;5053310;28;20049;-67
2022/11/27 18:28:30;;;;;;;69.63;37.67;;;;;;;;;;5047023;28;20044;-67
2022/11/27 18:30:57;;;;;;;56.28;32.08;;;;;;;;;;5040874;28;20049;-66
2022/11/27 18:33:23;;;;;;;59.83;34.25;;;;;;;;;;5038458;28;20056;-67
2022/11/27 18:35:51;;;;;;;56.97;34.25;;;;;;;;;;5053350;28;20064;-66
2022/11/27 18:38:17;;;;;;;;;;;;;;;;;;5053711;28;20048;-66
2022/11/27 18:40:44;;;;;;;63.50;35.47;;;;;;;;;;5053203;28;20287;-66
2022/11/27 18:43:11;;;;;;;55.05;30.52;;;;;;;;;;5051768;28;20045;-66
2022/11/27 18:45:37;;;;;;;51.72;31.20;;;;;;;;;;5052801;28;20053;-66
2022/11/27 18:48:04;;;;;;;81.20;42.88;;;;;;;;;;5045829;28;20103;-66
2022/11/27 18:50:30;;;;;;;76.57;40.03;;;;;;;;;;5032207;28;20061;-64
2022/11/27 18:52:56;;;;;;;83.03;55.78;;;;;;;;;;5035430;28;20059;-66
2022/11/27 18:55:23;;;;;;;67.07;41.00;;;;;;;;;;5052537;28;20128;-66
2022/11/27 18:57:49;;;;;;;76.38;43.10;;;;;;;;;;5034318;28;20053;-66
2022/11/27 19:00:16;;;;;;;71.47;40.28;;;;;;;;;;5030654;28;20050;-66
2022/11/27 19:02:42;;;;;;;61.63;35.40;;;;;;;;;;5031937;28;20049;-66
2022/11/27 19:05:09;;;;;;;74.25;37.20;;;;;;;;;;5032377;28;20041;-66
2022/11/27 19:07:35;;;;;;;63.38;33.20;;;;;;;;;;5047567;28;20045;-66
2022/11/27 19:10:02;;;;;;;62.72;34.28;;;;;;;;;;5052593;28;20095;-66
2022/11/27 19:12:28;;;;;;;71.50;36.75;;;;;;;;;;5052279;28;20052;-66
2022/11/27 19:14:55;;;;;;;72.30;33.92;;;;;;;;;;5047659;28;20056;-66
2022/11/27 19:17:21;;;;;;;57.78;36.58;;;;;;;;;;5044018;28;20056;-66
2022/11/27 19:19:53;;;;;;;60.03;36.22;;;;;;;;;;5052080;28;20056;-66
2022/11/27 19:22:20;;;;;;;58.97;36.50;;;;;;;;;;5052507;28;20135;-66
2022/11/27 19:24:46;;;;;;;70.40;36.38;;;;;;;;;;5052348;28;20311;-66
2022/11/27 19:27:13;;;;;;;61.85;35.70;;;;;;;;;;5037160;28;20089;-66
2022/11/27 19:29:39;;;;;;;70.38;42.00;;;;;;;;;;5032180;28;20500;-66
2022/11/27 19:32:06;;;;;;;64.47;40.13;;;;;;;;;;5032003;28;20147;-66
2022/11/27 19:34:33;;;;;;;68.22;45.05;;;;;;;;;;5031606;28;20057;-67
2022/11/27 19:36:59;;;;;;;66.90;44.35;;;;;;;;;;5031731;28;20055;-66
2022/11/27 19:39:26;;;;;;;68.25;42.80;;;;;;;;;;5031384;28;20043;-66
2022/11/27 19:41:53;;;;;;;55.67;36.37;;;;;;;;;;5031770;28;20045;-66
2022/11/27 19:44:19;;;;;;;48.47;26.08;;;;;;;;;;5031663;28;20046;-67
2022/11/27 19:46:45;;;;;;;43.33;20.73;;;;;;;;;;5043297;28;20053;-67
2022/11/27 19:49:13;;;;;;;42.83;15.40;;;;;;;;;;5051940;28;20037;-66
2022/11/27 19:51:40;;;;;;;;;;;;;;;;;;5052225;28;20041;-66
2022/11/27 19:54:06;;;;;;;40.40;10.27;;;;;;;;;;5051682;28;19921;-66
2022/11/27 19:56:38;;;;;;;40.35;11.00;;;;;;;;;;5047536;28;20103;-66
2022/11/27 19:59:05;;;;;;;45.05;10.50;;;;;;;;;;5033555;28;20041;-67
2022/11/27 20:01:31;;;;;;;49.50;10.07;;;;;;;;;;5038230;28;20053;-66
2022/11/27 20:03:58;;;;;;;43.42;10.15;;;;;;;;;;5035760;28;20045;-66
2022/11/27 20:06:25;;;;;;;47.85;10.27;;;;;;;;;;5030627;28;20105;-66
2022/11/27 20:08:53;;;;;;;39.33;10.18;;;;;;;;;;5030510;28;20493;-66
2022/11/27 20:11:19;;;;;;;;;;;;;;;;;;5043344;28;20564;-66
2022/11/27 20:13:46;;;;;;;30.33;8.10;;;;;;;;;;5051026;28;19931;-65
2022/11/27 20:16:13;;;;;;;46.67;8.68;;;;;;;;;;5050758;28;20052;-66
2022/11/27 20:18:40;;;;;;;;;;;;;;;;;;5051282;28;20483;-66
2022/11/27 20:21:08;;;;;;;39.88;8.43;;;;;;;;;;5046637;28;19925;-66
2022/11/27 20:23:34;;;;;;;;;;;;;;;;;;5039010;28;20049;-66
2022/11/27 20:26:04;;;;;;;39.35;9.55;;;;;;;;;;5045040;28;19925;-65
2022/11/27 20:28:31;;;;;;;38.42;8.93;;;;;;;;;;5050512;28;20547;-66
2022/11/27 20:30:58;;;;;;;45.80;9.40;;;;;;;;;;5050992;28;20150;-66
2022/11/27 20:33:26;;;;;;;38.70;8.68;;;;;;;;;;5050852;28;20139;-66
2022/11/27 20:35:53;;;;;;;38.53;8.88;;;;;;;;;;5051057;28;20053;-66
2022/11/27 20:38:20;;;;;;;49.83;10.30;;;;;;;;;;5046552;28;20119;-66
2022/11/27 20:40:46;;;;;;;47.00;9.00;;;;;;;;;;5050653;28;20055;-67
2022/11/27 20:43:13;;;;;;;42.72;9.75;;;;;;;;;;5050584;28;20059;-66
2022/11/27 20:45:39;;;;;;;36.15;8.18;;;;;;;;;;5050735;28;20045;-66
2022/11/27 20:48:06;;;;;;;42.53;9.05;;;;;;;;;;5050873;28;20052;-65
2022/11/27 20:50:33;;;;;;;29.60;9.27;;;;;;;;;;5050801;28;20053;-66
2022/11/27 20:52:59;;;;;;;45.33;10.38;;;;;;;;;;5050962;28;20104;-66